sensor_id;sensor_type;location;lat;lon;timestamp;P1;durP1;ratioP1;P2;durP2;ratioP2
62848;SDS011;48941;49.516;8.286;2023-01-09T00:01:17;5.80;;;4.40;;
62848;SDS011;48941;49.516;8.286;2023-01-09T00:03:47;4.95;;;4.10;;
62848;SDS011;48941;49.516;8.286;2023-01-09T00:06:15;7.32;;;4.30;;
62848;SDS011;48941;49.516;8.286;2023-01-09T00:08:43;4.60;;;3.67;;
62848;SDS011;48941;49.516;8.286;2023-01-09T00:11:10;6.15;;;3.95;;
62848;SDS011;48941;49.516;8.286;2023-01-09T00:13:38;4.63;;;3.63;;
62848;SDS011;48941;49.516;8.286;2023-01-09T00:16:08;4.55;;;3.38;;
62848;SDS011;48941;49.516;8.286;2023-01-09T00:18:36;4.13;;;3.33;;
62848;SDS011;48941;49.516;8.286;2023-01-09T00:21:07;4.40;;;3.45;;
62848;SDS011;48941;49.516;8.286;2023-01-09T00:23:36;5.93;;;3.30;;
62848;SDS011;48941;49.516;8.286;2023-01-09T00:26:05;6.40;;;3.05;;
62848;SDS011;48941;49.516;8.286;2023-01-09T00:28:34;6.18;;;3.22;;
62848;SDS011;48941;49.516;8.286;2023-01-09T00:31:03;3.25;;;2.72;;
62848;SDS011;48941;49.516;8.286;2023-01-09T00:33:34;3.85;;;2.70;;
62848;SDS011;48941;49.516;8.286;2023-01-09T00:36:05;3.28;;;2.75;;
62848;SDS011;48941;49.516;8.286;2023-01-09T00:38:33;3.00;;;2.45;;
62848;SDS011;48941;49.516;8.286;2023-01-09T00:41:02;2.80;;;2.50;;
62848;SDS011;48941;49.516;8.286;2023-01-09T00:43:32;2.88;;;2.40;;
62848;SDS011;48941;49.516;8.286;2023-01-09T00:46:05;2.42;;;2.15;;
62848;SDS011;48941;49.516;8.286;2023-01-09T00:48:35;4.63;;;2.10;;
62848;SDS011;48941;49.516;8.286;2023-01-09T00:51:05;2.92;;;2.30;;
62848;SDS011;48941;49.516;8.286;2023-01-09T00:53:34;2.55;;;2.00;;
62848;SDS011;48941;49.516;8.286;2023-01-09T00:56:06;3.15;;;2.60;;
62848;SDS011;48941;49.516;8.286;2023-01-09T00:58:37;3.17;;;2.00;;
62848;SDS011;48941;49.516;8.286;2023-01-09T01:01:05;2.90;;;2.35;;
62848;SDS011;48941;49.516;8.286;2023-01-09T01:03:33;2.33;;;2.10;;
62848;SDS011;48941;49.516;8.286;2023-01-09T01:06:03;3.15;;;2.63;;
62848;SDS011;48941;49.516;8.286;2023-01-09T01:08:48;3.65;;;2.30;;
62848;SDS011;48941;49.516;8.286;2023-01-09T01:11:16;3.28;;;2.60;;
62848;SDS011;48941;49.516;8.286;2023-01-09T01:13:44;2.47;;;2.28;;
62848;SDS011;48941;49.516;8.286;2023-01-09T01:16:12;2.55;;;2.35;;
62848;SDS011;48941;49.516;8.286;2023-01-09T01:18:40;2.65;;;2.28;;
62848;SDS011;48941;49.516;8.286;2023-01-09T01:21:10;2.90;;;2.20;;
62848;SDS011;48941;49.516;8.286;2023-01-09T01:23:39;2.15;;;1.95;;
62848;SDS011;48941;49.516;8.286;2023-01-09T01:26:08;2.00;;;1.80;;
62848;SDS011;48941;49.516;8.286;2023-01-09T01:28:37;2.70;;;2.05;;
62848;SDS011;48941;49.516;8.286;2023-01-09T01:31:05;2.17;;;1.98;;
62848;SDS011;48941;49.516;8.286;2023-01-09T01:33:34;2.88;;;1.88;;
62848;SDS011;48941;49.516;8.286;2023-01-09T01:36:02;2.95;;;2.22;;
62848;SDS011;48941;49.516;8.286;2023-01-09T01:38:32;2.35;;;1.85;;
62848;SDS011;48941;49.516;8.286;2023-01-09T01:41:00;2.28;;;2.08;;
62848;SDS011;48941;49.516;8.286;2023-01-09T01:46:19;1.83;;;1.73;;
62848;SDS011;48941;49.516;8.286;2023-01-09T01:48:47;2.10;;;1.90;;
62848;SDS011;48941;49.516;8.286;2023-01-09T01:53:52;1.80;;;1.67;;
62848;SDS011;48941;49.516;8.286;2023-01-09T01:56:24;1.70;;;1.60;;
62848;SDS011;48941;49.516;8.286;2023-01-09T01:58:56;2.67;;;1.50;;
62848;SDS011;48941;49.516;8.286;2023-01-09T02:01:27;2.58;;;1.52;;
62848;SDS011;48941;49.516;8.286;2023-01-09T02:03:58;1.95;;;1.40;;
62848;SDS011;48941;49.516;8.286;2023-01-09T02:06:28;2.25;;;1.40;;
62848;SDS011;48941;49.516;8.286;2023-01-09T02:08:58;1.70;;;1.45;;
62848;SDS011;48941;49.516;8.286;2023-01-09T02:11:26;1.45;;;1.35;;
62848;SDS011;48941;49.516;8.286;2023-01-09T02:13:55;1.50;;;1.40;;
62848;SDS011;48941;49.516;8.286;2023-01-09T02:16:28;1.50;;;1.40;;
62848;SDS011;48941;49.516;8.286;2023-01-09T02:19:05;2.63;;;1.20;;
62848;SDS011;48941;49.516;8.286;2023-01-09T02:21:48;1.08;;;1.00;;
62848;SDS011;48941;49.516;8.286;2023-01-09T02:24:45;2.60;;;0.98;;
62848;SDS011;48941;49.516;8.286;2023-01-09T02:27:30;1.48;;;0.93;;
62848;SDS011;48941;49.516;8.286;2023-01-09T02:30:25;0.93;;;0.75;;
62848;SDS011;48941;49.516;8.286;2023-01-09T02:32:59;1.73;;;0.90;;
62848;SDS011;48941;49.516;8.286;2023-01-09T02:35:40;1.60;;;1.05;;
62848;SDS011;48941;49.516;8.286;2023-01-09T02:38:18;0.85;;;0.85;;
62848;SDS011;48941;49.516;8.286;2023-01-09T02:40:54;1.58;;;1.10;;
62848;SDS011;48941;49.516;8.286;2023-01-09T02:43:26;0.98;;;0.98;;
62848;SDS011;48941;49.516;8.286;2023-01-09T02:45:56;0.88;;;0.88;;
62848;SDS011;48941;49.516;8.286;2023-01-09T02:48:24;0.88;;;0.88;;
62848;SDS011;48941;49.516;8.286;2023-01-09T02:50:55;0.80;;;0.80;;
62848;SDS011;48941;49.516;8.286;2023-01-09T02:53:36;0.70;;;0.70;;
62848;SDS011;48941;49.516;8.286;2023-01-09T02:56:35;0.82;;;0.82;;
62848;SDS011;48941;49.516;8.286;2023-01-09T02:59:18;1.60;;;1.33;;
62848;SDS011;48941;49.516;8.286;2023-01-09T03:01:57;1.00;;;0.90;;
62848;SDS011;48941;49.516;8.286;2023-01-09T03:04:37;1.38;;;0.98;;
62848;SDS011;48941;49.516;8.286;2023-01-09T03:07:13;1.83;;;1.00;;
62848;SDS011;48941;49.516;8.286;2023-01-09T03:09:48;0.80;;;0.75;;
62848;SDS011;48941;49.516;8.286;2023-01-09T03:12:19;0.77;;;0.77;;
62848;SDS011;48941;49.516;8.286;2023-01-09T03:14:50;0.98;;;0.77;;
62848;SDS011;48941;49.516;8.286;2023-01-09T03:17:23;0.70;;;0.70;;
62848;SDS011;48941;49.516;8.286;2023-01-09T03:22:23;0.73;;;0.73;;
62848;SDS011;48941;49.516;8.286;2023-01-09T03:24:51;1.15;;;0.85;;
62848;SDS011;48941;49.516;8.286;2023-01-09T03:27:18;1.42;;;0.70;;
62848;SDS011;48941;49.516;8.286;2023-01-09T03:29:46;0.93;;;0.68;;
62848;SDS011;48941;49.516;8.286;2023-01-09T03:32:14;0.80;;;0.80;;
62848;SDS011;48941;49.516;8.286;2023-01-09T03:34:43;0.63;;;0.63;;
62848;SDS011;48941;49.516;8.286;2023-01-09T03:37:11;0.90;;;0.90;;
62848;SDS011;48941;49.516;8.286;2023-01-09T03:39:39;3.38;;;0.85;;
62848;SDS011;48941;49.516;8.286;2023-01-09T03:42:08;0.90;;;0.90;;
62848;SDS011;48941;49.516;8.286;2023-01-09T03:44:36;0.80;;;0.80;;
62848;SDS011;48941;49.516;8.286;2023-01-09T03:47:03;1.50;;;0.98;;
62848;SDS011;48941;49.516;8.286;2023-01-09T03:49:31;2.65;;;0.77;;
62848;SDS011;48941;49.516;8.286;2023-01-09T03:52:00;1.08;;;0.70;;
62848;SDS011;48941;49.516;8.286;2023-01-09T03:54:28;1.00;;;1.00;;
62848;SDS011;48941;49.516;8.286;2023-01-09T03:56:56;1.15;;;0.85;;
62848;SDS011;48941;49.516;8.286;2023-01-09T03:59:23;0.73;;;0.73;;
62848;SDS011;48941;49.516;8.286;2023-01-09T04:01:52;0.77;;;0.77;;
62848;SDS011;48941;49.516;8.286;2023-01-09T04:04:20;1.23;;;0.93;;
62848;SDS011;48941;49.516;8.286;2023-01-09T04:06:47;1.08;;;0.90;;
62848;SDS011;48941;49.516;8.286;2023-01-09T04:09:16;0.90;;;0.90;;
62848;SDS011;48941;49.516;8.286;2023-01-09T04:11:44;0.70;;;0.70;;
62848;SDS011;48941;49.516;8.286;2023-01-09T04:14:12;0.70;;;0.70;;
62848;SDS011;48941;49.516;8.286;2023-01-09T04:16:40;0.82;;;0.82;;
62848;SDS011;48941;49.516;8.286;2023-01-09T04:19:07;1.10;;;1.00;;
62848;SDS011;48941;49.516;8.286;2023-01-09T04:21:35;0.80;;;0.80;;
62848;SDS011;48941;49.516;8.286;2023-01-09T04:24:03;0.95;;;0.90;;
62848;SDS011;48941;49.516;8.286;2023-01-09T04:26:33;1.17;;;1.08;;
62848;SDS011;48941;49.516;8.286;2023-01-09T04:29:01;1.33;;;1.20;;
62848;SDS011;48941;49.516;8.286;2023-01-09T04:31:28;1.10;;;0.93;;
62848;SDS011;48941;49.516;8.286;2023-01-09T04:33:56;1.00;;;1.00;;
62848;SDS011;48941;49.516;8.286;2023-01-09T04:36:24;1.02;;;1.02;;
62848;SDS011;48941;49.516;8.286;2023-01-09T04:38:51;1.85;;;0.90;;
62848;SDS011;48941;49.516;8.286;2023-01-09T04:41:19;1.15;;;0.82;;
62848;SDS011;48941;49.516;8.286;2023-01-09T04:44:02;1.25;;;0.98;;
62848;SDS011;48941;49.516;8.286;2023-01-09T04:46:30;1.02;;;0.70;;
62848;SDS011;48941;49.516;8.286;2023-01-09T04:48:57;0.88;;;0.88;;
62848;SDS011;48941;49.516;8.286;2023-01-09T04:51:25;0.73;;;0.73;;
62848;SDS011;48941;49.516;8.286;2023-01-09T04:53:53;1.95;;;0.82;;
62848;SDS011;48941;49.516;8.286;2023-01-09T04:56:21;1.08;;;0.80;;
62848;SDS011;48941;49.516;8.286;2023-01-09T04:58:48;0.80;;;0.80;;
62848;SDS011;48941;49.516;8.286;2023-01-09T05:01:17;0.80;;;0.80;;
62848;SDS011;48941;49.516;8.286;2023-01-09T05:03:45;0.70;;;0.70;;
62848;SDS011;48941;49.516;8.286;2023-01-09T05:06:13;1.75;;;0.95;;
62848;SDS011;48941;49.516;8.286;2023-01-09T05:08:41;2.38;;;0.93;;
62848;SDS011;48941;49.516;8.286;2023-01-09T05:11:09;1.83;;;0.82;;
62848;SDS011;48941;49.516;8.286;2023-01-09T05:13:36;0.90;;;0.90;;
62848;SDS011;48941;49.516;8.286;2023-01-09T05:16:04;0.95;;;0.85;;
62848;SDS011;48941;49.516;8.286;2023-01-09T05:18:34;4.88;;;0.98;;
62848;SDS011;48941;49.516;8.286;2023-01-09T05:21:02;1.40;;;0.98;;
62848;SDS011;48941;49.516;8.286;2023-01-09T05:23:30;2.45;;;0.80;;
62848;SDS011;48941;49.516;8.286;2023-01-09T05:25:58;1.60;;;0.77;;
62848;SDS011;48941;49.516;8.286;2023-01-09T05:28:26;1.15;;;0.90;;
62848;SDS011;48941;49.516;8.286;2023-01-09T05:30:53;1.38;;;0.90;;
62848;SDS011;48941;49.516;8.286;2023-01-09T05:33:21;1.63;;;1.00;;
62848;SDS011;48941;49.516;8.286;2023-01-09T05:35:50;1.17;;;1.08;;
62848;SDS011;48941;49.516;8.286;2023-01-09T05:38:18;3.72;;;1.20;;
62848;SDS011;48941;49.516;8.286;2023-01-09T05:40:46;3.05;;;1.88;;
62848;SDS011;48941;49.516;8.286;2023-01-09T05:43:14;2.25;;;1.67;;
62848;SDS011;48941;49.516;8.286;2023-01-09T05:45:41;3.70;;;0.98;;
62848;SDS011;48941;49.516;8.286;2023-01-09T05:48:09;1.15;;;0.90;;
62848;SDS011;48941;49.516;8.286;2023-01-09T05:50:37;1.42;;;0.70;;
62848;SDS011;48941;49.516;8.286;2023-01-09T05:53:06;1.63;;;0.80;;
62848;SDS011;48941;49.516;8.286;2023-01-09T05:55:34;3.38;;;1.08;;
62848;SDS011;48941;49.516;8.286;2023-01-09T05:58:02;1.95;;;1.23;;
62848;SDS011;48941;49.516;8.286;2023-01-09T06:00:30;0.93;;;0.90;;
62848;SDS011;48941;49.516;8.286;2023-01-09T06:02:57;3.20;;;1.00;;
62848;SDS011;48941;49.516;8.286;2023-01-09T06:05:25;10.98;;;1.63;;
62848;SDS011;48941;49.516;8.286;2023-01-09T06:07:53;2.03;;;1.50;;
62848;SDS011;48941;49.516;8.286;2023-01-09T06:10:22;5.65;;;1.75;;
62848;SDS011;48941;49.516;8.286;2023-01-09T06:12:50;3.70;;;1.48;;
62848;SDS011;48941;49.516;8.286;2023-01-09T06:15:19;2.65;;;1.15;;
62848;SDS011;48941;49.516;8.286;2023-01-09T06:17:47;4.55;;;1.40;;
62848;SDS011;48941;49.516;8.286;2023-01-09T06:20:15;7.10;;;2.15;;
62848;SDS011;48941;49.516;8.286;2023-01-09T06:22:43;5.40;;;1.83;;
62848;SDS011;48941;49.516;8.286;2023-01-09T06:25:11;3.95;;;1.30;;
62848;SDS011;48941;49.516;8.286;2023-01-09T06:27:40;4.63;;;1.38;;
62848;SDS011;48941;49.516;8.286;2023-01-09T06:30:08;6.07;;;1.88;;
62848;SDS011;48941;49.516;8.286;2023-01-09T06:32:37;4.78;;;1.73;;
62848;SDS011;48941;49.516;8.286;2023-01-09T06:35:05;6.10;;;1.38;;
62848;SDS011;48941;49.516;8.286;2023-01-09T06:37:33;2.20;;;1.38;;
62848;SDS011;48941;49.516;8.286;2023-01-09T06:40:01;3.97;;;1.70;;
62848;SDS011;48941;49.516;8.286;2023-01-09T06:42:29;1.67;;;1.02;;
62848;SDS011;48941;49.516;8.286;2023-01-09T06:44:58;6.22;;;1.73;;
62848;SDS011;48941;49.516;8.286;2023-01-09T06:47:26;4.03;;;1.40;;
62848;SDS011;48941;49.516;8.286;2023-01-09T06:49:54;2.95;;;1.00;;
62848;SDS011;48941;49.516;8.286;2023-01-09T06:52:22;4.45;;;1.13;;
62848;SDS011;48941;49.516;8.286;2023-01-09T06:54:50;2.15;;;1.15;;
62848;SDS011;48941;49.516;8.286;2023-01-09T06:57:18;4.97;;;1.65;;
62848;SDS011;48941;49.516;8.286;2023-01-09T06:59:46;4.00;;;1.20;;
62848;SDS011;48941;49.516;8.286;2023-01-09T07:02:16;2.42;;;1.20;;
62848;SDS011;48941;49.516;8.286;2023-01-09T07:04:45;4.78;;;1.30;;
62848;SDS011;48941;49.516;8.286;2023-01-09T07:07:13;4.97;;;1.15;;
62848;SDS011;48941;49.516;8.286;2023-01-09T07:09:41;4.10;;;1.27;;
62848;SDS011;48941;49.516;8.286;2023-01-09T07:12:09;7.60;;;3.33;;
62848;SDS011;48941;49.516;8.286;2023-01-09T07:14:38;6.95;;;1.90;;
62848;SDS011;48941;49.516;8.286;2023-01-09T07:17:05;8.43;;;1.50;;
62848;SDS011;48941;49.516;8.286;2023-01-09T07:19:34;10.00;;;1.60;;
62848;SDS011;48941;49.516;8.286;2023-01-09T07:22:02;5.22;;;1.20;;
62848;SDS011;48941;49.516;8.286;2023-01-09T07:24:30;12.13;;;1.70;;
62848;SDS011;48941;49.516;8.286;2023-01-09T07:26:58;3.13;;;1.20;;
62848;SDS011;48941;49.516;8.286;2023-01-09T07:29:26;5.43;;;1.40;;
62848;SDS011;48941;49.516;8.286;2023-01-09T07:31:53;5.70;;;1.40;;
62848;SDS011;48941;49.516;8.286;2023-01-09T07:34:22;6.20;;;1.50;;
62848;SDS011;48941;49.516;8.286;2023-01-09T07:36:51;6.22;;;1.70;;
62848;SDS011;48941;49.516;8.286;2023-01-09T07:39:19;5.82;;;1.23;;
62848;SDS011;48941;49.516;8.286;2023-01-09T07:41:47;3.53;;;1.40;;
62848;SDS011;48941;49.516;8.286;2023-01-09T07:44:15;4.38;;;1.10;;
62848;SDS011;48941;49.516;8.286;2023-01-09T07:46:42;5.13;;;1.42;;
62848;SDS011;48941;49.516;8.286;2023-01-09T07:49:10;4.90;;;1.50;;
62848;SDS011;48941;49.516;8.286;2023-01-09T07:51:38;5.25;;;1.33;;
62848;SDS011;48941;49.516;8.286;2023-01-09T07:54:11;4.55;;;1.42;;
62848;SDS011;48941;49.516;8.286;2023-01-09T07:56:39;6.82;;;1.40;;
62848;SDS011;48941;49.516;8.286;2023-01-09T07:59:07;3.70;;;1.63;;
62848;SDS011;48941;49.516;8.286;2023-01-09T08:01:36;5.43;;;2.25;;
62848;SDS011;48941;49.516;8.286;2023-01-09T08:04:04;9.70;;;3.50;;
62848;SDS011;48941;49.516;8.286;2023-01-09T08:06:32;12.57;;;3.17;;
62848;SDS011;48941;49.516;8.286;2023-01-09T08:09:00;12.57;;;2.50;;
62848;SDS011;48941;49.516;8.286;2023-01-09T08:11:29;9.02;;;2.63;;
62848;SDS011;48941;49.516;8.286;2023-01-09T08:13:57;6.97;;;1.98;;
62848;SDS011;48941;49.516;8.286;2023-01-09T08:16:25;7.15;;;1.50;;
62848;SDS011;48941;49.516;8.286;2023-01-09T08:18:53;6.07;;;1.40;;
62848;SDS011;48941;49.516;8.286;2023-01-09T08:21:21;4.63;;;1.70;;
62848;SDS011;48941;49.516;8.286;2023-01-09T08:23:49;7.00;;;1.48;;
62848;SDS011;48941;49.516;8.286;2023-01-09T08:26:16;6.00;;;1.48;;
62848;SDS011;48941;49.516;8.286;2023-01-09T08:28:46;5.82;;;1.85;;
62848;SDS011;48941;49.516;8.286;2023-01-09T08:31:14;4.03;;;1.50;;
62848;SDS011;48941;49.516;8.286;2023-01-09T08:33:42;9.82;;;2.65;;
62848;SDS011;48941;49.516;8.286;2023-01-09T08:36:10;5.13;;;1.70;;
62848;SDS011;48941;49.516;8.286;2023-01-09T08:38:38;5.18;;;1.27;;
62848;SDS011;48941;49.516;8.286;2023-01-09T08:41:06;7.38;;;1.67;;
62848;SDS011;48941;49.516;8.286;2023-01-09T08:43:49;4.40;;;1.40;;
62848;SDS011;48941;49.516;8.286;2023-01-09T08:46:34;4.95;;;1.40;;
62848;SDS011;48941;49.516;8.286;2023-01-09T08:49:19;2.53;;;1.40;;
62848;SDS011;48941;49.516;8.286;2023-01-09T08:51:47;2.90;;;1.10;;
62848;SDS011;48941;49.516;8.286;2023-01-09T08:54:15;5.07;;;1.45;;
62848;SDS011;48941;49.516;8.286;2023-01-09T08:56:43;6.45;;;1.23;;
62848;SDS011;48941;49.516;8.286;2023-01-09T08:59:13;4.10;;;1.30;;
62848;SDS011;48941;49.516;8.286;2023-01-09T09:01:42;2.38;;;0.90;;
62848;SDS011;48941;49.516;8.286;2023-01-09T09:04:11;5.60;;;1.27;;
62848;SDS011;48941;49.516;8.286;2023-01-09T09:06:39;3.90;;;1.25;;
62848;SDS011;48941;49.516;8.286;2023-01-09T09:09:07;4.60;;;1.23;;
62848;SDS011;48941;49.516;8.286;2023-01-09T09:11:35;3.92;;;1.38;;
62848;SDS011;48941;49.516;8.286;2023-01-09T09:14:03;1.90;;;1.02;;
62848;SDS011;48941;49.516;8.286;2023-01-09T09:16:53;1.95;;;0.93;;
62848;SDS011;48941;49.516;8.286;2023-01-09T09:19:21;5.22;;;1.45;;
62848;SDS011;48941;49.516;8.286;2023-01-09T09:21:49;4.70;;;1.60;;
62848;SDS011;48941;49.516;8.286;2023-01-09T09:24:18;5.50;;;1.38;;
62848;SDS011;48941;49.516;8.286;2023-01-09T09:26:46;4.43;;;1.10;;
62848;SDS011;48941;49.516;8.286;2023-01-09T09:29:14;4.47;;;1.83;;
62848;SDS011;48941;49.516;8.286;2023-01-09T09:31:42;3.83;;;1.10;;
62848;SDS011;48941;49.516;8.286;2023-01-09T09:34:11;4.00;;;1.48;;
62848;SDS011;48941;49.516;8.286;2023-01-09T09:36:39;1.77;;;1.10;;
62848;SDS011;48941;49.516;8.286;2023-01-09T09:39:07;1.27;;;0.80;;
62848;SDS011;48941;49.516;8.286;2023-01-09T09:41:43;1.98;;;1.08;;
62848;SDS011;48941;49.516;8.286;2023-01-09T09:44:55;3.17;;;0.85;;
62848;SDS011;48941;49.516;8.286;2023-01-09T09:47:36;5.72;;;1.52;;
62848;SDS011;48941;49.516;8.286;2023-01-09T09:50:18;3.10;;;0.98;;
62848;SDS011;48941;49.516;8.286;2023-01-09T09:52:55;6.97;;;1.30;;
62848;SDS011;48941;49.516;8.286;2023-01-09T09:55:30;3.10;;;1.10;;
62848;SDS011;48941;49.516;8.286;2023-01-09T09:58:01;3.47;;;1.10;;
62848;SDS011;48941;49.516;8.286;2023-01-09T10:00:34;3.50;;;1.00;;
62848;SDS011;48941;49.516;8.286;2023-01-09T10:03:03;2.25;;;0.98;;
62848;SDS011;48941;49.516;8.286;2023-01-09T10:05:36;3.15;;;1.38;;
62848;SDS011;48941;49.516;8.286;2023-01-09T10:08:10;2.47;;;1.08;;
62848;SDS011;48941;49.516;8.286;2023-01-09T10:10:47;1.70;;;0.80;;
62848;SDS011;48941;49.516;8.286;2023-01-09T10:13:21;1.67;;;0.70;;
62848;SDS011;48941;49.516;8.286;2023-01-09T10:16:11;1.80;;;0.90;;
62848;SDS011;48941;49.516;8.286;2023-01-09T10:18:53;0.98;;;0.80;;
62848;SDS011;48941;49.516;8.286;2023-01-09T10:21:36;2.38;;;0.90;;
62848;SDS011;48941;49.516;8.286;2023-01-09T10:24:25;4.15;;;1.30;;
62848;SDS011;48941;49.516;8.286;2023-01-09T10:27:08;4.22;;;1.40;;
62848;SDS011;48941;49.516;8.286;2023-01-09T10:30:06;3.15;;;1.30;;
62848;SDS011;48941;49.516;8.286;2023-01-09T10:32:49;1.05;;;1.00;;
62848;SDS011;48941;49.516;8.286;2023-01-09T10:35:33;6.32;;;0.95;;
62848;SDS011;48941;49.516;8.286;2023-01-09T10:38:16;2.65;;;0.85;;
62848;SDS011;48941;49.516;8.286;2023-01-09T10:40:49;2.78;;;1.00;;
62848;SDS011;48941;49.516;8.286;2023-01-09T10:43:28;2.03;;;0.68;;
62848;SDS011;48941;49.516;8.286;2023-01-09T10:46:01;2.70;;;0.90;;
62848;SDS011;48941;49.516;8.286;2023-01-09T10:48:36;3.47;;;1.20;;
62848;SDS011;48941;49.516;8.286;2023-01-09T10:51:11;1.13;;;0.80;;
62848;SDS011;48941;49.516;8.286;2023-01-09T10:53:46;1.42;;;0.85;;
62848;SDS011;48941;49.516;8.286;2023-01-09T10:56:17;2.90;;;0.98;;
62848;SDS011;48941;49.516;8.286;2023-01-09T11:01:18;2.15;;;0.80;;
62848;SDS011;48941;49.516;8.286;2023-01-09T11:03:52;1.58;;;0.90;;
62848;SDS011;48941;49.516;8.286;2023-01-09T11:06:21;1.33;;;0.90;;
62848;SDS011;48941;49.516;8.286;2023-01-09T11:08:54;3.70;;;1.00;;
62848;SDS011;48941;49.516;8.286;2023-01-09T11:11:31;2.17;;;0.88;;
62848;SDS011;48941;49.516;8.286;2023-01-09T11:14:04;1.42;;;0.80;;
62848;SDS011;48941;49.516;8.286;2023-01-09T11:16:44;2.92;;;0.80;;
62848;SDS011;48941;49.516;8.286;2023-01-09T11:19:18;0.85;;;0.70;;
62848;SDS011;48941;49.516;8.286;2023-01-09T11:21:45;1.33;;;0.77;;
62848;SDS011;48941;49.516;8.286;2023-01-09T11:24:25;1.38;;;0.63;;
62848;SDS011;48941;49.516;8.286;2023-01-09T11:27:15;1.67;;;1.00;;
62848;SDS011;48941;49.516;8.286;2023-01-09T11:32:53;3.10;;;1.27;;
62848;SDS011;48941;49.516;8.286;2023-01-09T11:35:24;1.65;;;0.73;;
62848;SDS011;48941;49.516;8.286;2023-01-09T11:38:01;0.85;;;0.85;;
62848;SDS011;48941;49.516;8.286;2023-01-09T11:40:36;3.70;;;1.25;;
62848;SDS011;48941;49.516;8.286;2023-01-09T11:43:13;1.83;;;0.68;;
62848;SDS011;48941;49.516;8.286;2023-01-09T11:45:46;3.03;;;1.60;;
62848;SDS011;48941;49.516;8.286;2023-01-09T11:48:27;1.15;;;0.73;;
62848;SDS011;48941;49.516;8.286;2023-01-09T11:50:59;1.67;;;0.90;;
62848;SDS011;48941;49.516;8.286;2023-01-09T11:53:28;2.20;;;0.88;;
62848;SDS011;48941;49.516;8.286;2023-01-09T11:56:12;3.28;;;2.00;;
62848;SDS011;48941;49.516;8.286;2023-01-09T11:58:41;3.53;;;0.80;;
62848;SDS011;48941;49.516;8.286;2023-01-09T12:01:14;2.13;;;1.02;;
62848;SDS011;48941;49.516;8.286;2023-01-09T12:04:02;3.97;;;2.00;;
62848;SDS011;48941;49.516;8.286;2023-01-09T12:06:43;1.80;;;1.20;;
62848;SDS011;48941;49.516;8.286;2023-01-09T12:09:21;4.30;;;2.35;;
62848;SDS011;48941;49.516;8.286;2023-01-09T12:11:58;1.08;;;0.98;;
62848;SDS011;48941;49.516;8.286;2023-01-09T12:14:34;3.55;;;1.58;;
62848;SDS011;48941;49.516;8.286;2023-01-09T12:17:15;1.45;;;1.20;;
62848;SDS011;48941;49.516;8.286;2023-01-09T12:20:13;2.45;;;1.10;;
62848;SDS011;48941;49.516;8.286;2023-01-09T12:22:51;2.38;;;0.80;;
62848;SDS011;48941;49.516;8.286;2023-01-09T12:25:27;1.08;;;0.80;;
62848;SDS011;48941;49.516;8.286;2023-01-09T12:31:09;0.90;;;0.70;;
62848;SDS011;48941;49.516;8.286;2023-01-09T12:33:50;2.38;;;1.30;;
62848;SDS011;48941;49.516;8.286;2023-01-09T12:36:28;4.32;;;2.03;;
62848;SDS011;48941;49.516;8.286;2023-01-09T12:39:07;1.95;;;1.77;;
62848;SDS011;48941;49.516;8.286;2023-01-09T12:41:56;2.13;;;1.40;;
62848;SDS011;48941;49.516;8.286;2023-01-09T12:44:41;2.22;;;1.25;;
62848;SDS011;48941;49.516;8.286;2023-01-09T12:47:23;1.92;;;1.42;;
62848;SDS011;48941;49.516;8.286;2023-01-09T12:50:08;1.17;;;0.82;;
62848;SDS011;48941;49.516;8.286;2023-01-09T12:53:03;0.88;;;0.70;;
62848;SDS011;48941;49.516;8.286;2023-01-09T12:55:38;2.42;;;1.02;;
62848;SDS011;48941;49.516;8.286;2023-01-09T12:58:11;2.78;;;0.90;;
62848;SDS011;48941;49.516;8.286;2023-01-09T13:00:47;0.80;;;0.80;;
62848;SDS011;48941;49.516;8.286;2023-01-09T13:05:48;1.50;;;0.60;;
62848;SDS011;48941;49.516;8.286;2023-01-09T13:08:20;1.30;;;0.98;;
62848;SDS011;48941;49.516;8.286;2023-01-09T13:10:52;3.88;;;1.10;;
62848;SDS011;48941;49.516;8.286;2023-01-09T13:13:32;1.88;;;0.80;;
62848;SDS011;48941;49.516;8.286;2023-01-09T13:16:09;2.03;;;1.15;;
62848;SDS011;48941;49.516;8.286;2023-01-09T13:18:41;0.90;;;0.90;;
62848;SDS011;48941;49.516;8.286;2023-01-09T13:21:13;2.38;;;1.13;;
62848;SDS011;48941;49.516;8.286;2023-01-09T13:23:43;2.70;;;1.00;;
62848;SDS011;48941;49.516;8.286;2023-01-09T13:26:18;1.58;;;1.10;;
62848;SDS011;48941;49.516;8.286;2023-01-09T13:28:51;5.45;;;1.10;;
62848;SDS011;48941;49.516;8.286;2023-01-09T13:31:40;2.53;;;1.17;;
62848;SDS011;48941;49.516;8.286;2023-01-09T13:34:18;3.17;;;1.80;;
62848;SDS011;48941;49.516;8.286;2023-01-09T13:36:50;3.97;;;1.90;;
62848;SDS011;48941;49.516;8.286;2023-01-09T13:39:21;3.60;;;1.50;;
62848;SDS011;48941;49.516;8.286;2023-01-09T13:41:51;5.75;;;1.88;;
62848;SDS011;48941;49.516;8.286;2023-01-09T13:44:41;2.92;;;1.73;;
62848;SDS011;48941;49.516;8.286;2023-01-09T13:47:15;8.25;;;1.20;;
62848;SDS011;48941;49.516;8.286;2023-01-09T13:52:47;1.10;;;0.80;;
62848;SDS011;48941;49.516;8.286;2023-01-09T13:55:26;3.17;;;1.38;;
62848;SDS011;48941;49.516;8.286;2023-01-09T14:00:52;3.05;;;1.10;;
62848;SDS011;48941;49.516;8.286;2023-01-09T14:03:27;2.90;;;1.35;;
62848;SDS011;48941;49.516;8.286;2023-01-09T14:08:45;1.63;;;1.00;;
62848;SDS011;48941;49.516;8.286;2023-01-09T14:11:19;2.75;;;1.13;;
62848;SDS011;48941;49.516;8.286;2023-01-09T14:14:00;2.22;;;0.95;;
62848;SDS011;48941;49.516;8.286;2023-01-09T14:16:31;2.90;;;1.15;;
62848;SDS011;48941;49.516;8.286;2023-01-09T14:19:03;3.17;;;1.20;;
62848;SDS011;48941;49.516;8.286;2023-01-09T14:21:47;2.65;;;1.20;;
62848;SDS011;48941;49.516;8.286;2023-01-09T14:24:20;3.92;;;1.23;;
62848;SDS011;48941;49.516;8.286;2023-01-09T14:26:51;2.85;;;1.45;;
62848;SDS011;48941;49.516;8.286;2023-01-09T14:29:42;3.60;;;1.70;;
62848;SDS011;48941;49.516;8.286;2023-01-09T14:35:15;3.17;;;1.20;;
62848;SDS011;48941;49.516;8.286;2023-01-09T14:37:54;2.22;;;1.08;;
62848;SDS011;48941;49.516;8.286;2023-01-09T14:40:29;4.20;;;1.20;;
62848;SDS011;48941;49.516;8.286;2023-01-09T14:43:02;3.17;;;1.25;;
62848;SDS011;48941;49.516;8.286;2023-01-09T14:45:38;6.75;;;1.40;;
62848;SDS011;48941;49.516;8.286;2023-01-09T14:48:10;3.47;;;1.33;;
62848;SDS011;48941;49.516;8.286;2023-01-09T14:50:41;4.28;;;1.27;;
62848;SDS011;48941;49.516;8.286;2023-01-09T14:53:17;3.13;;;1.17;;
62848;SDS011;48941;49.516;8.286;2023-01-09T14:55:49;3.35;;;1.50;;
62848;SDS011;48941;49.516;8.286;2023-01-09T14:58:19;7.55;;;1.88;;
62848;SDS011;48941;49.516;8.286;2023-01-09T15:00:53;2.97;;;1.25;;
62848;SDS011;48941;49.516;8.286;2023-01-09T15:03:25;2.72;;;1.20;;
62848;SDS011;48941;49.516;8.286;2023-01-09T15:05:59;3.00;;;1.20;;
62848;SDS011;48941;49.516;8.286;2023-01-09T15:08:27;2.80;;;1.77;;
62848;SDS011;48941;49.516;8.286;2023-01-09T15:10:56;2.55;;;1.52;;
62848;SDS011;48941;49.516;8.286;2023-01-09T15:13:28;3.35;;;1.17;;
62848;SDS011;48941;49.516;8.286;2023-01-09T15:16:00;2.67;;;1.33;;
62848;SDS011;48941;49.516;8.286;2023-01-09T15:18:36;4.18;;;1.40;;
62848;SDS011;48941;49.516;8.286;2023-01-09T15:21:13;2.78;;;1.30;;
62848;SDS011;48941;49.516;8.286;2023-01-09T15:23:44;1.58;;;1.00;;
62848;SDS011;48941;49.516;8.286;2023-01-09T15:26:13;4.45;;;1.45;;
62848;SDS011;48941;49.516;8.286;2023-01-09T15:28:50;5.15;;;1.58;;
62848;SDS011;48941;49.516;8.286;2023-01-09T15:31:19;4.72;;;1.73;;
62848;SDS011;48941;49.516;8.286;2023-01-09T15:33:50;4.78;;;1.90;;
62848;SDS011;48941;49.516;8.286;2023-01-09T15:36:21;4.32;;;2.03;;
62848;SDS011;48941;49.516;8.286;2023-01-09T15:38:51;1.67;;;1.05;;
62848;SDS011;48941;49.516;8.286;2023-01-09T15:41:22;3.28;;;1.75;;
62848;SDS011;48941;49.516;8.286;2023-01-09T15:44:11;1.65;;;1.30;;
62848;SDS011;48941;49.516;8.286;2023-01-09T15:46:41;3.10;;;1.02;;
62848;SDS011;48941;49.516;8.286;2023-01-09T15:49:11;4.32;;;0.90;;